sensor_id;sensor_type;location;lat;lon;timestamp;P1;durP1;ratioP1;P2;durP2;ratioP2
62050;SDS011;48008;51.204;6.766;2022-07-21T00:01:58;22.30;;;11.90;;
62050;SDS011;48008;51.204;6.766;2022-07-21T00:04:24;18.00;;;10.70;;
62050;SDS011;48008;51.204;6.766;2022-07-21T00:06:51;21.75;;;11.30;;
62050;SDS011;48008;51.204;6.766;2022-07-21T00:09:19;21.13;;;11.52;;
62050;SDS011;48008;51.204;6.766;2022-07-21T00:11:45;18.23;;;11.68;;
62050;SDS011;48008;51.204;6.766;2022-07-21T00:14:12;21.92;;;11.15;;
62050;SDS011;48008;51.204;6.766;2022-07-21T00:16:40;24.75;;;11.25;;
62050;SDS011;48008;51.204;6.766;2022-07-21T00:19:07;19.45;;;12.20;;
62050;SDS011;48008;51.204;6.766;2022-07-21T00:21:35;24.75;;;10.70;;
62050;SDS011;48008;51.204;6.766;2022-07-21T00:24:02;19.77;;;10.40;;
62050;SDS011;48008;51.204;6.766;2022-07-21T00:26:29;25.38;;;10.73;;
62050;SDS011;48008;51.204;6.766;2022-07-21T00:28:56;21.52;;;10.30;;
62050;SDS011;48008;51.204;6.766;2022-07-21T00:31:23;21.52;;;11.18;;
62050;SDS011;48008;51.204;6.766;2022-07-21T00:33:49;20.98;;;12.05;;
62050;SDS011;48008;51.204;6.766;2022-07-21T00:36:18;23.83;;;12.55;;
62050;SDS011;48008;51.204;6.766;2022-07-21T00:38:46;23.23;;;11.45;;
62050;SDS011;48008;51.204;6.766;2022-07-21T00:41:13;20.52;;;11.38;;
62050;SDS011;48008;51.204;6.766;2022-07-21T00:43:40;22.08;;;11.02;;
62050;SDS011;48008;51.204;6.766;2022-07-21T00:46:07;20.10;;;10.93;;
62050;SDS011;48008;51.204;6.766;2022-07-21T00:48:34;16.80;;;10.65;;
62050;SDS011;48008;51.204;6.766;2022-07-21T00:51:01;17.23;;;9.88;;
62050;SDS011;48008;51.204;6.766;2022-07-21T00:53:27;21.13;;;10.68;;
62050;SDS011;48008;51.204;6.766;2022-07-21T00:55:54;17.08;;;9.13;;
62050;SDS011;48008;51.204;6.766;2022-07-21T00:58:22;20.15;;;10.05;;
62050;SDS011;48008;51.204;6.766;2022-07-21T01:00:50;20.20;;;9.10;;
62050;SDS011;48008;51.204;6.766;2022-07-21T01:03:17;17.45;;;10.50;;
62050;SDS011;48008;51.204;6.766;2022-07-21T01:05:44;17.25;;;9.48;;
62050;SDS011;48008;51.204;6.766;2022-07-21T01:08:12;19.55;;;10.75;;
62050;SDS011;48008;51.204;6.766;2022-07-21T01:10:41;17.60;;;10.30;;
62050;SDS011;48008;51.204;6.766;2022-07-21T01:13:08;18.13;;;10.05;;
62050;SDS011;48008;51.204;6.766;2022-07-21T01:15:35;17.95;;;9.77;;
62050;SDS011;48008;51.204;6.766;2022-07-21T01:18:02;20.88;;;10.82;;
62050;SDS011;48008;51.204;6.766;2022-07-21T01:20:31;20.10;;;10.68;;
62050;SDS011;48008;51.204;6.766;2022-07-21T01:23:01;21.10;;;10.98;;
62050;SDS011;48008;51.204;6.766;2022-07-21T01:25:28;18.98;;;10.02;;
62050;SDS011;48008;51.204;6.766;2022-07-21T01:27:55;20.33;;;10.40;;
62050;SDS011;48008;51.204;6.766;2022-07-21T01:30:22;16.80;;;9.90;;
62050;SDS011;48008;51.204;6.766;2022-07-21T01:32:49;21.33;;;10.65;;
62050;SDS011;48008;51.204;6.766;2022-07-21T01:35:16;18.63;;;11.00;;
62050;SDS011;48008;51.204;6.766;2022-07-21T01:37:44;18.05;;;9.75;;
62050;SDS011;48008;51.204;6.766;2022-07-21T01:40:12;15.30;;;9.07;;
62050;SDS011;48008;51.204;6.766;2022-07-21T01:43:00;16.08;;;9.02;;
62050;SDS011;48008;51.204;6.766;2022-07-21T01:45:27;17.15;;;8.80;;
62050;SDS011;48008;51.204;6.766;2022-07-21T01:47:54;16.67;;;9.10;;
62050;SDS011;48008;51.204;6.766;2022-07-21T01:50:22;17.67;;;8.52;;
62050;SDS011;48008;51.204;6.766;2022-07-21T01:52:53;16.75;;;9.13;;
62050;SDS011;48008;51.204;6.766;2022-07-21T01:55:22;14.70;;;8.40;;
62050;SDS011;48008;51.204;6.766;2022-07-21T01:57:50;16.70;;;9.23;;
62050;SDS011;48008;51.204;6.766;2022-07-21T02:00:17;16.60;;;9.73;;
62050;SDS011;48008;51.204;6.766;2022-07-21T02:02:44;17.15;;;10.25;;
62050;SDS011;48008;51.204;6.766;2022-07-21T02:05:11;17.38;;;10.43;;
62050;SDS011;48008;51.204;6.766;2022-07-21T02:07:38;20.08;;;9.95;;
62050;SDS011;48008;51.204;6.766;2022-07-21T02:10:04;18.98;;;10.57;;
62050;SDS011;48008;51.204;6.766;2022-07-21T02:12:33;18.60;;;10.52;;
62050;SDS011;48008;51.204;6.766;2022-07-21T02:14:59;20.05;;;10.98;;
62050;SDS011;48008;51.204;6.766;2022-07-21T02:17:26;19.65;;;11.18;;
62050;SDS011;48008;51.204;6.766;2022-07-21T02:19:53;20.30;;;10.75;;
62050;SDS011;48008;51.204;6.766;2022-07-21T02:22:25;17.58;;;10.18;;
62050;SDS011;48008;51.204;6.766;2022-07-21T02:24:51;19.65;;;10.50;;
62050;SDS011;48008;51.204;6.766;2022-07-21T02:27:18;21.25;;;11.48;;
62050;SDS011;48008;51.204;6.766;2022-07-21T02:29:45;16.98;;;11.77;;
62050;SDS011;48008;51.204;6.766;2022-07-21T02:32:11;19.00;;;11.27;;
62050;SDS011;48008;51.204;6.766;2022-07-21T02:34:38;19.17;;;11.75;;
62050;SDS011;48008;51.204;6.766;2022-07-21T02:37:05;24.42;;;12.38;;
62050;SDS011;48008;51.204;6.766;2022-07-21T02:39:31;19.67;;;11.57;;
62050;SDS011;48008;51.204;6.766;2022-07-21T02:41:58;24.73;;;13.30;;
62050;SDS011;48008;51.204;6.766;2022-07-21T02:44:25;20.83;;;12.38;;
62050;SDS011;48008;51.204;6.766;2022-07-21T02:46:52;20.85;;;11.55;;
62050;SDS011;48008;51.204;6.766;2022-07-21T02:49:18;22.13;;;12.35;;
62050;SDS011;48008;51.204;6.766;2022-07-21T02:51:45;25.95;;;13.02;;
62050;SDS011;48008;51.204;6.766;2022-07-21T02:54:12;23.42;;;12.32;;
62050;SDS011;48008;51.204;6.766;2022-07-21T02:56:38;20.30;;;12.43;;
62050;SDS011;48008;51.204;6.766;2022-07-21T02:59:05;25.73;;;13.20;;
62050;SDS011;48008;51.204;6.766;2022-07-21T03:01:31;21.45;;;13.10;;
62050;SDS011;48008;51.204;6.766;2022-07-21T03:03:58;21.67;;;13.38;;
62050;SDS011;48008;51.204;6.766;2022-07-21T03:06:25;23.63;;;14.00;;
62050;SDS011;48008;51.204;6.766;2022-07-21T03:08:52;22.55;;;13.93;;
62050;SDS011;48008;51.204;6.766;2022-07-21T03:11:18;22.83;;;12.70;;
62050;SDS011;48008;51.204;6.766;2022-07-21T03:13:46;27.95;;;13.48;;
62050;SDS011;48008;51.204;6.766;2022-07-21T03:16:13;26.73;;;13.43;;
62050;SDS011;48008;51.204;6.766;2022-07-21T03:18:40;24.20;;;13.98;;
62050;SDS011;48008;51.204;6.766;2022-07-21T03:21:07;24.42;;;13.95;;
62050;SDS011;48008;51.204;6.766;2022-07-21T03:23:34;27.23;;;14.70;;
62050;SDS011;48008;51.204;6.766;2022-07-21T03:26:01;29.10;;;13.45;;
62050;SDS011;48008;51.204;6.766;2022-07-21T03:28:28;24.02;;;14.15;;
62050;SDS011;48008;51.204;6.766;2022-07-21T03:30:55;26.88;;;13.85;;
62050;SDS011;48008;51.204;6.766;2022-07-21T03:33:22;21.80;;;14.00;;
62050;SDS011;48008;51.204;6.766;2022-07-21T03:35:49;23.50;;;13.80;;
62050;SDS011;48008;51.204;6.766;2022-07-21T03:38:16;26.20;;;13.07;;
62050;SDS011;48008;51.204;6.766;2022-07-21T03:40:43;23.10;;;13.93;;
62050;SDS011;48008;51.204;6.766;2022-07-21T03:43:09;26.58;;;14.18;;
62050;SDS011;48008;51.204;6.766;2022-07-21T03:45:36;24.55;;;14.25;;
62050;SDS011;48008;51.204;6.766;2022-07-21T03:48:04;24.40;;;13.40;;
62050;SDS011;48008;51.204;6.766;2022-07-21T03:50:32;27.58;;;14.73;;
62050;SDS011;48008;51.204;6.766;2022-07-21T03:53:00;26.65;;;15.05;;
62050;SDS011;48008;51.204;6.766;2022-07-21T03:55:27;23.27;;;14.50;;
62050;SDS011;48008;51.204;6.766;2022-07-21T03:57:56;25.98;;;15.32;;
62050;SDS011;48008;51.204;6.766;2022-07-21T04:00:25;26.52;;;15.07;;
62050;SDS011;48008;51.204;6.766;2022-07-21T04:02:57;25.52;;;15.15;;
62050;SDS011;48008;51.204;6.766;2022-07-21T04:05:25;27.40;;;15.20;;
62050;SDS011;48008;51.204;6.766;2022-07-21T04:07:53;26.50;;;14.80;;
62050;SDS011;48008;51.204;6.766;2022-07-21T04:10:21;29.02;;;14.70;;
62050;SDS011;48008;51.204;6.766;2022-07-21T04:12:51;24.77;;;15.52;;
62050;SDS011;48008;51.204;6.766;2022-07-21T04:15:19;26.10;;;15.02;;
62050;SDS011;48008;51.204;6.766;2022-07-21T04:17:46;25.63;;;15.60;;
62050;SDS011;48008;51.204;6.766;2022-07-21T04:20:15;30.52;;;15.23;;
62050;SDS011;48008;51.204;6.766;2022-07-21T04:22:43;33.08;;;16.20;;
62050;SDS011;48008;51.204;6.766;2022-07-21T04:25:10;26.40;;;16.27;;
62050;SDS011;48008;51.204;6.766;2022-07-21T04:27:37;38.40;;;16.70;;
62050;SDS011;48008;51.204;6.766;2022-07-21T04:30:05;26.23;;;16.70;;
62050;SDS011;48008;51.204;6.766;2022-07-21T04:32:33;26.33;;;16.88;;
62050;SDS011;48008;51.204;6.766;2022-07-21T04:35:00;31.40;;;16.65;;
62050;SDS011;48008;51.204;6.766;2022-07-21T04:37:27;28.65;;;16.35;;
62050;SDS011;48008;51.204;6.766;2022-07-21T04:39:54;27.55;;;16.58;;
62050;SDS011;48008;51.204;6.766;2022-07-21T04:42:21;29.10;;;16.35;;
62050;SDS011;48008;51.204;6.766;2022-07-21T04:44:47;25.60;;;15.45;;
62050;SDS011;48008;51.204;6.766;2022-07-21T04:47:14;29.23;;;16.63;;
62050;SDS011;48008;51.204;6.766;2022-07-21T04:49:41;29.15;;;16.50;;
62050;SDS011;48008;51.204;6.766;2022-07-21T04:52:08;26.23;;;15.38;;
62050;SDS011;48008;51.204;6.766;2022-07-21T04:54:35;29.75;;;15.38;;
62050;SDS011;48008;51.204;6.766;2022-07-21T04:57:02;28.92;;;15.85;;
62050;SDS011;48008;51.204;6.766;2022-07-21T04:59:30;29.23;;;15.20;;
62050;SDS011;48008;51.204;6.766;2022-07-21T05:01:57;28.80;;;14.00;;
62050;SDS011;48008;51.204;6.766;2022-07-21T05:04:25;30.45;;;16.08;;
62050;SDS011;48008;51.204;6.766;2022-07-21T05:06:52;27.25;;;15.13;;
62050;SDS011;48008;51.204;6.766;2022-07-21T05:09:19;34.03;;;15.85;;
62050;SDS011;48008;51.204;6.766;2022-07-21T05:11:46;26.20;;;14.13;;
62050;SDS011;48008;51.204;6.766;2022-07-21T05:14:13;25.45;;;14.80;;
62050;SDS011;48008;51.204;6.766;2022-07-21T05:16:42;28.92;;;14.70;;
62050;SDS011;48008;51.204;6.766;2022-07-21T05:19:09;27.27;;;15.13;;
62050;SDS011;48008;51.204;6.766;2022-07-21T05:21:36;23.20;;;14.05;;
62050;SDS011;48008;51.204;6.766;2022-07-21T05:24:02;29.10;;;13.57;;
62050;SDS011;48008;51.204;6.766;2022-07-21T05:26:30;25.90;;;14.02;;
62050;SDS011;48008;51.204;6.766;2022-07-21T05:28:56;25.38;;;13.75;;
62050;SDS011;48008;51.204;6.766;2022-07-21T05:31:23;25.73;;;13.57;;
62050;SDS011;48008;51.204;6.766;2022-07-21T05:33:50;23.17;;;14.20;;
62050;SDS011;48008;51.204;6.766;2022-07-21T05:36:16;24.67;;;14.32;;
62050;SDS011;48008;51.204;6.766;2022-07-21T05:38:44;26.08;;;14.80;;
62050;SDS011;48008;51.204;6.766;2022-07-21T05:41:11;26.48;;;14.02;;
62050;SDS011;48008;51.204;6.766;2022-07-21T05:43:38;23.13;;;14.00;;
62050;SDS011;48008;51.204;6.766;2022-07-21T05:46:04;22.17;;;14.30;;
62050;SDS011;48008;51.204;6.766;2022-07-21T05:48:31;29.25;;;14.73;;
62050;SDS011;48008;51.204;6.766;2022-07-21T05:50:58;26.60;;;13.73;;
62050;SDS011;48008;51.204;6.766;2022-07-21T05:53:24;22.95;;;13.48;;
62050;SDS011;48008;51.204;6.766;2022-07-21T05:55:51;23.55;;;14.20;;
62050;SDS011;48008;51.204;6.766;2022-07-21T05:58:18;24.13;;;14.70;;
62050;SDS011;48008;51.204;6.766;2022-07-21T06:00:46;28.55;;;14.40;;
62050;SDS011;48008;51.204;6.766;2022-07-21T06:03:33;23.10;;;14.40;;
62050;SDS011;48008;51.204;6.766;2022-07-21T06:06:01;25.83;;;14.57;;
62050;SDS011;48008;51.204;6.766;2022-07-21T06:08:28;23.55;;;14.02;;
62050;SDS011;48008;51.204;6.766;2022-07-21T06:10:55;25.52;;;14.15;;
62050;SDS011;48008;51.204;6.766;2022-07-21T06:13:22;25.20;;;14.30;;
62050;SDS011;48008;51.204;6.766;2022-07-21T06:15:49;23.40;;;14.07;;
62050;SDS011;48008;51.204;6.766;2022-07-21T06:18:17;23.30;;;13.65;;
62050;SDS011;48008;51.204;6.766;2022-07-21T06:20:44;22.58;;;14.27;;
62050;SDS011;48008;51.204;6.766;2022-07-21T06:23:11;25.65;;;13.82;;
62050;SDS011;48008;51.204;6.766;2022-07-21T06:25:38;26.23;;;14.07;;
62050;SDS011;48008;51.204;6.766;2022-07-21T06:28:04;27.92;;;14.10;;
62050;SDS011;48008;51.204;6.766;2022-07-21T06:30:31;23.10;;;13.77;;
62050;SDS011;48008;51.204;6.766;2022-07-21T06:32:58;26.45;;;13.90;;
62050;SDS011;48008;51.204;6.766;2022-07-21T06:35:25;27.65;;;12.57;;
62050;SDS011;48008;51.204;6.766;2022-07-21T06:37:52;24.25;;;13.18;;
62050;SDS011;48008;51.204;6.766;2022-07-21T06:40:19;23.60;;;12.95;;
62050;SDS011;48008;51.204;6.766;2022-07-21T06:42:45;20.27;;;12.57;;
62050;SDS011;48008;51.204;6.766;2022-07-21T06:45:26;19.75;;;12.77;;
62050;SDS011;48008;51.204;6.766;2022-07-21T06:48:08;21.35;;;11.90;;
62050;SDS011;48008;51.204;6.766;2022-07-21T06:50:35;28.20;;;13.38;;
62050;SDS011;48008;51.204;6.766;2022-07-21T06:53:03;25.40;;;12.85;;
62050;SDS011;48008;51.204;6.766;2022-07-21T06:55:31;22.80;;;12.30;;
62050;SDS011;48008;51.204;6.766;2022-07-21T06:57:57;23.70;;;12.82;;
62050;SDS011;48008;51.204;6.766;2022-07-21T07:00:34;25.33;;;14.68;;
62050;SDS011;48008;51.204;6.766;2022-07-21T07:03:01;23.48;;;12.95;;
62050;SDS011;48008;51.204;6.766;2022-07-21T07:05:27;22.60;;;12.38;;
62050;SDS011;48008;51.204;6.766;2022-07-21T07:07:56;28.17;;;13.15;;
62050;SDS011;48008;51.204;6.766;2022-07-21T07:10:23;23.27;;;12.50;;
62050;SDS011;48008;51.204;6.766;2022-07-21T07:12:49;23.23;;;12.32;;
62050;SDS011;48008;51.204;6.766;2022-07-21T07:15:36;28.58;;;13.30;;
62050;SDS011;48008;51.204;6.766;2022-07-21T07:18:03;20.90;;;11.18;;
62050;SDS011;48008;51.204;6.766;2022-07-21T07:20:31;22.42;;;10.70;;
62050;SDS011;48008;51.204;6.766;2022-07-21T07:22:58;21.92;;;10.43;;
62050;SDS011;48008;51.204;6.766;2022-07-21T07:25:24;21.33;;;10.77;;
62050;SDS011;48008;51.204;6.766;2022-07-21T07:27:52;23.55;;;10.05;;
62050;SDS011;48008;51.204;6.766;2022-07-21T07:30:20;20.27;;;10.20;;
62050;SDS011;48008;51.204;6.766;2022-07-21T07:32:47;20.10;;;10.13;;
62050;SDS011;48008;51.204;6.766;2022-07-21T07:35:14;17.05;;;9.93;;
62050;SDS011;48008;51.204;6.766;2022-07-21T07:37:42;21.52;;;10.18;;
62050;SDS011;48008;51.204;6.766;2022-07-21T07:40:11;19.45;;;10.02;;
62050;SDS011;48008;51.204;6.766;2022-07-21T07:42:40;19.52;;;9.13;;
62050;SDS011;48008;51.204;6.766;2022-07-21T07:45:07;18.73;;;9.38;;
62050;SDS011;48008;51.204;6.766;2022-07-21T07:47:34;24.73;;;9.05;;
62050;SDS011;48008;51.204;6.766;2022-07-21T07:50:01;18.90;;;9.00;;
62050;SDS011;48008;51.204;6.766;2022-07-21T07:52:28;18.42;;;8.52;;
62050;SDS011;48008;51.204;6.766;2022-07-21T07:54:55;13.63;;;6.88;;
62050;SDS011;48008;51.204;6.766;2022-07-21T07:57:22;17.45;;;7.65;;
62050;SDS011;48008;51.204;6.766;2022-07-21T07:59:48;16.38;;;7.57;;
62050;SDS011;48008;51.204;6.766;2022-07-21T08:02:15;19.70;;;7.95;;
62050;SDS011;48008;51.204;6.766;2022-07-21T08:04:42;15.15;;;7.47;;
62050;SDS011;48008;51.204;6.766;2022-07-21T08:07:08;19.67;;;8.27;;
62050;SDS011;48008;51.204;6.766;2022-07-21T08:09:35;13.55;;;7.70;;
62050;SDS011;48008;51.204;6.766;2022-07-21T08:12:02;20.95;;;8.27;;
62050;SDS011;48008;51.204;6.766;2022-07-21T08:14:29;18.95;;;8.38;;
62050;SDS011;48008;51.204;6.766;2022-07-21T08:16:55;14.65;;;8.38;;
62050;SDS011;48008;51.204;6.766;2022-07-21T08:19:25;19.05;;;8.88;;
62050;SDS011;48008;51.204;6.766;2022-07-21T08:21:53;17.23;;;8.43;;
62050;SDS011;48008;51.204;6.766;2022-07-21T08:24:37;18.27;;;9.05;;
62050;SDS011;48008;51.204;6.766;2022-07-21T08:27:04;22.77;;;9.43;;
62050;SDS011;48008;51.204;6.766;2022-07-21T08:29:31;18.67;;;8.68;;
62050;SDS011;48008;51.204;6.766;2022-07-21T08:31:57;18.48;;;8.70;;
62050;SDS011;48008;51.204;6.766;2022-07-21T08:34:25;19.73;;;9.07;;
62050;SDS011;48008;51.204;6.766;2022-07-21T08:36:52;18.30;;;8.77;;
62050;SDS011;48008;51.204;6.766;2022-07-21T08:39:20;21.17;;;9.85;;
62050;SDS011;48008;51.204;6.766;2022-07-21T08:41:46;25.25;;;10.18;;
62050;SDS011;48008;51.204;6.766;2022-07-21T08:44:16;17.48;;;9.35;;
62050;SDS011;48008;51.204;6.766;2022-07-21T08:46:43;21.35;;;10.23;;
62050;SDS011;48008;51.204;6.766;2022-07-21T08:49:16;16.95;;;10.18;;
62050;SDS011;48008;51.204;6.766;2022-07-21T08:51:46;22.10;;;9.83;;
62050;SDS011;48008;51.204;6.766;2022-07-21T08:54:13;19.98;;;9.93;;
62050;SDS011;48008;51.204;6.766;2022-07-21T08:56:40;16.10;;;9.77;;
62050;SDS011;48008;51.204;6.766;2022-07-21T08:59:07;22.13;;;10.15;;
62050;SDS011;48008;51.204;6.766;2022-07-21T09:01:33;22.58;;;10.05;;
62050;SDS011;48008;51.204;6.766;2022-07-21T09:04:31;27.88;;;13.43;;
62050;SDS011;48008;51.204;6.766;2022-07-21T09:07:02;24.30;;;9.95;;
62050;SDS011;48008;51.204;6.766;2022-07-21T09:09:31;21.27;;;10.57;;
62050;SDS011;48008;51.204;6.766;2022-07-21T09:12:00;20.25;;;11.52;;
62050;SDS011;48008;51.204;6.766;2022-07-21T09:14:30;21.77;;;11.80;;
62050;SDS011;48008;51.204;6.766;2022-07-21T09:17:00;27.45;;;11.82;;
62050;SDS011;48008;51.204;6.766;2022-07-21T09:19:34;24.63;;;12.25;;
62050;SDS011;48008;51.204;6.766;2022-07-21T09:22:06;24.55;;;12.57;;
62050;SDS011;48008;51.204;6.766;2022-07-21T09:24:37;26.83;;;12.25;;
62050;SDS011;48008;51.204;6.766;2022-07-21T09:27:07;24.17;;;12.15;;
62050;SDS011;48008;51.204;6.766;2022-07-21T09:29:40;22.23;;;11.50;;
62050;SDS011;48008;51.204;6.766;2022-07-21T09:32:12;26.77;;;11.30;;
62050;SDS011;48008;51.204;6.766;2022-07-21T09:34:41;20.05;;;9.95;;
62050;SDS011;48008;51.204;6.766;2022-07-21T09:37:08;17.67;;;9.02;;
62050;SDS011;48008;51.204;6.766;2022-07-21T09:40:07;24.10;;;10.35;;
62050;SDS011;48008;51.204;6.766;2022-07-21T09:42:24;18.58;;;10.35;;
62050;SDS011;48008;51.204;6.766;2022-07-21T09:44:55;20.90;;;9.63;;
62050;SDS011;48008;51.204;6.766;2022-07-21T09:47:26;21.05;;;10.20;;
62050;SDS011;48008;51.204;6.766;2022-07-21T09:49:56;18.20;;;9.68;;
62050;SDS011;48008;51.204;6.766;2022-07-21T09:52:45;21.75;;;10.10;;
62050;SDS011;48008;51.204;6.766;2022-07-21T09:55:13;19.55;;;9.55;;
62050;SDS011;48008;51.204;6.766;2022-07-21T09:57:42;20.38;;;9.73;;
62050;SDS011;48008;51.204;6.766;2022-07-21T10:00:11;22.30;;;9.45;;
62050;SDS011;48008;51.204;6.766;2022-07-21T10:02:44;20.55;;;9.40;;
62050;SDS011;48008;51.204;6.766;2022-07-21T10:05:12;20.85;;;10.07;;
62050;SDS011;48008;51.204;6.766;2022-07-21T10:07:43;23.77;;;10.15;;
62050;SDS011;48008;51.204;6.766;2022-07-21T10:10:11;21.13;;;9.98;;
62050;SDS011;48008;51.204;6.766;2022-07-21T10:12:39;20.63;;;9.32;;
62050;SDS011;48008;51.204;6.766;2022-07-21T10:15:06;22.17;;;10.10;;
62050;SDS011;48008;51.204;6.766;2022-07-21T10:17:33;21.35;;;10.52;;
62050;SDS011;48008;51.204;6.766;2022-07-21T10:20:04;21.33;;;9.95;;
62050;SDS011;48008;51.204;6.766;2022-07-21T10:22:41;28.58;;;10.02;;
62050;SDS011;48008;51.204;6.766;2022-07-21T10:25:18;23.23;;;10.50;;
62050;SDS011;48008;51.204;6.766;2022-07-21T10:28:11;18.90;;;10.25;;
62050;SDS011;48008;51.204;6.766;2022-07-21T10:30:48;21.58;;;10.57;;
62050;SDS011;48008;51.204;6.766;2022-07-21T10:33:18;22.45;;;11.27;;
62050;SDS011;48008;51.204;6.766;2022-07-21T10:35:47;23.92;;;11.32;;
62050;SDS011;48008;51.204;6.766;2022-07-21T10:38:31;27.40;;;13.32;;
62050;SDS011;48008;51.204;6.766;2022-07-21T10:41:00;24.02;;;12.80;;
62050;SDS011;48008;51.204;6.766;2022-07-21T10:46:31;27.13;;;13.93;;
62050;SDS011;48008;51.204;6.766;2022-07-21T10:48:59;23.10;;;13.52;;
62050;SDS011;48008;51.204;6.766;2022-07-21T10:51:26;26.30;;;13.70;;
62050;SDS011;48008;51.204;6.766;2022-07-21T10:54:25;25.02;;;14.13;;
62050;SDS011;48008;51.204;6.766;2022-07-21T10:56:42;24.60;;;13.95;;
62050;SDS011;48008;51.204;6.766;2022-07-21T10:59:09;24.92;;;14.95;;
62050;SDS011;48008;51.204;6.766;2022-07-21T11:01:35;26.88;;;14.43;;
62050;SDS011;48008;51.204;6.766;2022-07-21T11:04:07;24.05;;;12.85;;
62050;SDS011;48008;51.204;6.766;2022-07-21T11:06:38;20.98;;;12.88;;
62050;SDS011;48008;51.204;6.766;2022-07-21T11:09:07;29.42;;;13.27;;
62050;SDS011;48008;51.204;6.766;2022-07-21T11:11:38;23.48;;;13.10;;
62050;SDS011;48008;51.204;6.766;2022-07-21T11:14:22;25.77;;;13.95;;
62050;SDS011;48008;51.204;6.766;2022-07-21T11:17:02;27.75;;;14.27;;
62050;SDS011;48008;51.204;6.766;2022-07-21T11:22:18;29.45;;;16.08;;
62050;SDS011;48008;51.204;6.766;2022-07-21T11:24:49;31.23;;;16.08;;
62050;SDS011;48008;51.204;6.766;2022-07-21T11:27:20;28.20;;;15.48;;
62050;SDS011;48008;51.204;6.766;2022-07-21T11:29:52;29.97;;;16.83;;
62050;SDS011;48008;51.204;6.766;2022-07-21T11:32:21;28.92;;;16.02;;
62050;SDS011;48008;51.204;6.766;2022-07-21T11:34:49;27.05;;;15.20;;
62050;SDS011;48008;51.204;6.766;2022-07-21T11:37:30;32.67;;;16.83;;
62050;SDS011;48008;51.204;6.766;2022-07-21T11:40:02;29.42;;;14.75;;
62050;SDS011;48008;51.204;6.766;2022-07-21T11:42:31;22.65;;;13.63;;
62050;SDS011;48008;51.204;6.766;2022-07-21T11:44:59;25.77;;;14.30;;
62050;SDS011;48008;51.204;6.766;2022-07-21T11:47:28;20.02;;;12.20;;
62050;SDS011;48008;51.204;6.766;2022-07-21T11:50:00;20.15;;;11.95;;
62050;SDS011;48008;51.204;6.766;2022-07-21T11:52:30;20.83;;;12.27;;
62050;SDS011;48008;51.204;6.766;2022-07-21T11:54:58;21.20;;;12.35;;
62050;SDS011;48008;51.204;6.766;2022-07-21T11:57:26;20.30;;;12.63;;
62050;SDS011;48008;51.204;6.766;2022-07-21T11:59:54;20.58;;;12.50;;
62050;SDS011;48008;51.204;6.766;2022-07-21T12:02:24;23.95;;;12.90;;
62050;SDS011;48008;51.204;6.766;2022-07-21T12:04:54;27.40;;;14.07;;
62050;SDS011;48008;51.204;6.766;2022-07-21T12:07:33;21.40;;;12.65;;
62050;SDS011;48008;51.204;6.766;2022-07-21T12:10:05;22.70;;;10.95;;
62050;SDS011;48008;51.204;6.766;2022-07-21T12:12:36;20.40;;;10.70;;
62050;SDS011;48008;51.204;6.766;2022-07-21T12:15:10;21.23;;;10.25;;
62050;SDS011;48008;51.204;6.766;2022-07-21T12:17:44;17.33;;;9.02;;
62050;SDS011;48008;51.204;6.766;2022-07-21T12:20:15;16.10;;;8.52;;
62050;SDS011;48008;51.204;6.766;2022-07-21T12:22:49;17.92;;;9.35;;
62050;SDS011;48008;51.204;6.766;2022-07-21T12:25:29;14.70;;;9.23;;
62050;SDS011;48008;51.204;6.766;2022-07-21T12:28:00;13.85;;;8.07;;
62050;SDS011;48008;51.204;6.766;2022-07-21T12:30:30;19.10;;;8.73;;
62050;SDS011;48008;51.204;6.766;2022-07-21T12:33:02;16.05;;;8.23;;
62050;SDS011;48008;51.204;6.766;2022-07-21T12:36:18;17.60;;;8.50;;
62050;SDS011;48008;51.204;6.766;2022-07-21T12:38:41;14.88;;;8.60;;
62050;SDS011;48008;51.204;6.766;2022-07-21T12:41:10;14.63;;;8.70;;
62050;SDS011;48008;51.204;6.766;2022-07-21T12:43:57;13.93;;;8.00;;
62050;SDS011;48008;51.204;6.766;2022-07-21T12:46:28;15.57;;;8.40;;
62050;SDS011;48008;51.204;6.766;2022-07-21T12:49:11;13.43;;;7.75;;
62050;SDS011;48008;51.204;6.766;2022-07-21T12:51:39;14.60;;;7.63;;
62050;SDS011;48008;51.204;6.766;2022-07-21T12:54:08;14.07;;;6.50;;
62050;SDS011;48008;51.204;6.766;2022-07-21T12:56:35;32.60;;;7.57;;
62050;SDS011;48008;51.204;6.766;2022-07-21T12:59:03;14.32;;;6.55;;
62050;SDS011;48008;51.204;6.766;2022-07-21T13:01:31;14.18;;;6.00;;
62050;SDS011;48008;51.204;6.766;2022-07-21T13:04:01;14.45;;;6.78;;
62050;SDS011;48008;51.204;6.766;2022-07-21T13:06:29;11.38;;;6.25;;
62050;SDS011;48008;51.204;6.766;2022-07-21T13:08:56;12.07;;;6.40;;
62050;SDS011;48008;51.204;6.766;2022-07-21T13:11:23;13.63;;;6.22;;
62050;SDS011;48008;51.204;6.766;2022-07-21T13:13:50;13.07;;;6.45;;
62050;SDS011;48008;51.204;6.766;2022-07-21T13:16:18;11.77;;;6.65;;
62050;SDS011;48008;51.204;6.766;2022-07-21T13:18:45;12.00;;;6.50;;
62050;SDS011;48008;51.204;6.766;2022-07-21T13:21:12;17.42;;;7.38;;
62050;SDS011;48008;51.204;6.766;2022-07-21T13:23:39;13.38;;;7.93;;
62050;SDS011;48008;51.204;6.766;2022-07-21T13:26:07;13.05;;;7.55;;
62050;SDS011;48008;51.204;6.766;2022-07-21T13:28:34;14.50;;;9.13;;
62050;SDS011;48008;51.204;6.766;2022-07-21T13:31:02;14.77;;;8.10;;
62050;SDS011;48008;51.204;6.766;2022-07-21T13:33:30;22.55;;;11.63;;
62050;SDS011;48008;51.204;6.766;2022-07-21T13:35:56;18.88;;;10.70;;
62050;SDS011;48008;51.204;6.766;2022-07-21T13:38:24;16.10;;;10.45;;
62050;SDS011;48008;51.204;6.766;2022-07-21T13:40:51;18.33;;;10.80;;
62050;SDS011;48008;51.204;6.766;2022-07-21T13:43:37;19.45;;;10.82;;
62050;SDS011;48008;51.204;6.766;2022-07-21T13:46:05;18.50;;;11.65;;
62050;SDS011;48008;51.204;6.766;2022-07-21T13:48:32;20.63;;;11.93;;
62050;SDS011;48008;51.204;6.766;2022-07-21T13:51:03;23.92;;;12.15;;
62050;SDS011;48008;51.204;6.766;2022-07-21T13:53:30;22.85;;;13.07;;
62050;SDS011;48008;51.204;6.766;2022-07-21T13:55:56;22.52;;;13.52;;
62050;SDS011;48008;51.204;6.766;2022-07-21T13:58:23;25.23;;;15.10;;
62050;SDS011;48008;51.204;6.766;2022-07-21T14:00:50;24.92;;;15.95;;
62050;SDS011;48008;51.204;6.766;2022-07-21T14:03:17;39.28;;;23.20;;
62050;SDS011;48008;51.204;6.766;2022-07-21T14:05:44;34.55;;;22.13;;
62050;SDS011;48008;51.204;6.766;2022-07-21T14:08:11;32.00;;;18.77;;
62050;SDS011;48008;51.204;6.766;2022-07-21T14:10:37;29.13;;;17.35;;
62050;SDS011;48008;51.204;6.766;2022-07-21T14:13:04;37.40;;;20.90;;
62050;SDS011;48008;51.204;6.766;2022-07-21T14:15:31;35.70;;;20.67;;
62050;SDS011;48008;51.204;6.766;2022-07-21T14:17:58;33.38;;;18.70;;
62050;SDS011;48008;51.204;6.766;2022-07-21T14:20:25;30.23;;;19.38;;
62050;SDS011;48008;51.204;6.766;2022-07-21T14:22:53;31.42;;;20.60;;
62050;SDS011;48008;51.204;6.766;2022-07-21T14:25:20;32.95;;;18.75;;
62050;SDS011;48008;51.204;6.766;2022-07-21T14:27:51;35.92;;;20.00;;
62050;SDS011;48008;51.204;6.766;2022-07-21T14:30:20;33.05;;;20.55;;
62050;SDS011;48008;51.204;6.766;2022-07-21T14:32:47;35.22;;;20.67;;
62050;SDS011;48008;51.204;6.766;2022-07-21T14:35:14;34.58;;;21.08;;
62050;SDS011;48008;51.204;6.766;2022-07-21T14:37:43;33.40;;;19.65;;
62050;SDS011;48008;51.204;6.766;2022-07-21T14:40:10;35.42;;;21.02;;
62050;SDS011;48008;51.204;6.766;2022-07-21T14:42:37;32.03;;;19.65;;